createdAt,value
2022-08-14T00:02:27.098Z,9.00
2022-08-14T00:04:56.507Z,9.30
2022-08-14T00:07:24.803Z,8.50
2022-08-14T00:10:01.561Z,9.10
2022-08-14T00:12:56.678Z,9.50
2022-08-14T00:15:43.511Z,9.30
2022-08-14T00:18:30.891Z,9.40
2022-08-14T00:21:05.134Z,8.90
2022-08-14T00:23:41.404Z,9.20
2022-08-14T00:26:21.428Z,9.10
2022-08-14T00:28:54.002Z,8.90
2022-08-14T00:31:44.407Z,9.60
2022-08-14T00:34:37.520Z,9.20
2022-08-14T00:37:02.053Z,9.20
2022-08-14T00:39:30.944Z,9.60
2022-08-14T00:41:59.186Z,9.20
2022-08-14T00:44:32.208Z,8.70
2022-08-14T00:47:03.805Z,8.90
2022-08-14T00:49:38.065Z,9.00
2022-08-14T00:52:17.775Z,8.30
2022-08-14T00:54:58.161Z,9.10
2022-08-14T00:57:29.402Z,9.20
2022-08-14T01:00:00.826Z,9.00
2022-08-14T01:02:31.862Z,8.70
2022-08-14T01:05:05.184Z,8.90
2022-08-14T01:07:38.923Z,9.00
2022-08-14T01:10:18.787Z,9.10
2022-08-14T01:12:51.067Z,8.90
2022-08-14T01:15:31.738Z,9.30
2022-08-14T01:18:30.758Z,9.30
2022-08-14T01:21:04.072Z,9.20
2022-08-14T01:23:46.654Z,9.70
2022-08-14T01:26:35.205Z,9.80
2022-08-14T01:29:10.868Z,10.10
2022-08-14T01:31:50.329Z,9.80
2022-08-14T01:35:17.851Z,9.90
2022-08-14T01:37:12.094Z,10.60
2022-08-14T01:39:44.801Z,9.50
2022-08-14T01:42:31.376Z,10.30
2022-08-14T01:45:01.238Z,9.50
2022-08-14T01:47:33.579Z,10.30
2022-08-14T01:50:09.316Z,9.80
2022-08-14T01:55:32.525Z,9.60
2022-08-14T01:58:20.377Z,10.10
2022-08-14T02:00:55.063Z,9.70
2022-08-14T02:03:29.836Z,9.10
2022-08-14T02:06:03.860Z,9.80
2022-08-14T02:08:53.453Z,10.10
2022-08-14T02:11:26.068Z,9.90
2022-08-14T02:14:06.861Z,10.70
2022-08-14T02:16:41.839Z,11.10
2022-08-14T02:19:15.386Z,10.30
2022-08-14T02:21:50.327Z,10.20
2022-08-14T02:24:39.671Z,10.80
2022-08-14T02:28:26.100Z,10.70
2022-08-14T02:30:02.138Z,11.00
2022-08-14T02:32:37.367Z,10.60
2022-08-14T02:35:13.999Z,10.60
2022-08-14T02:37:47.918Z,10.90
2022-08-14T02:40:19.536Z,10.20
2022-08-14T02:42:54.262Z,10.50
2022-08-14T02:45:38.712Z,9.90
2022-08-14T02:49:01.875Z,10.40
2022-08-14T02:51:09.124Z,10.30
2022-08-14T02:53:44.584Z,10.10
2022-08-14T02:56:30.940Z,10.20
2022-08-14T02:59:09.675Z,10.20
2022-08-14T03:01:43.289Z,10.10
2022-08-14T03:04:20.255Z,10.40
2022-08-14T03:07:06.203Z,9.70
2022-08-14T03:09:42.182Z,10.80
2022-08-14T03:12:30.752Z,10.60
2022-08-14T03:15:14.235Z,9.80
2022-08-14T03:17:57.118Z,9.80
2022-08-14T03:20:29.027Z,10.40
2022-08-14T03:23:03.017Z,11.30
2022-08-14T03:25:37.596Z,15.30
2022-08-14T03:28:14.903Z,12.70
2022-08-14T03:30:59.874Z,11.10
2022-08-14T03:33:37.377Z,10.00
2022-08-14T03:37:38.941Z,10.30
2022-08-14T03:39:14.408Z,9.80
2022-08-14T03:41:55.855Z,10.50
2022-08-14T03:45:20.233Z,10.30
2022-08-14T03:47:15.365Z,10.50
2022-08-14T03:49:50.006Z,11.30
2022-08-14T03:52:38.101Z,15.20
2022-08-14T03:55:11.058Z,11.80
2022-08-14T03:57:40.999Z,11.40
2022-08-14T04:00:43.674Z,12.30
2022-08-14T04:03:07.703Z,11.40
2022-08-14T04:05:43.393Z,11.20
2022-08-14T04:08:23.089Z,10.80
2022-08-14T04:11:01.182Z,11.70
2022-08-14T04:13:35.840Z,11.00
2022-08-14T04:16:12.377Z,10.70
2022-08-14T04:18:43.713Z,11.60
2022-08-14T04:21:13.836Z,10.80
2022-08-14T04:23:44.392Z,10.90
2022-08-14T04:26:27.462Z,12.10
2022-08-14T04:29:15.062Z,11.50
2022-08-14T04:33:02.021Z,10.10
2022-08-14T04:34:35.305Z,11.60
2022-08-14T04:37:25.348Z,11.30
2022-08-14T04:40:15.245Z,10.90
2022-08-14T04:43:02.973Z,10.30
2022-08-14T04:45:38.963Z,10.90
2022-08-14T04:48:13.137Z,10.90
2022-08-14T04:50:45.517Z,11.50
2022-08-14T04:53:26.536Z,10.70
2022-08-14T04:56:30.243Z,10.90
2022-08-14T04:59:01.474Z,11.10
2022-08-14T05:01:39.613Z,11.10
2022-08-14T05:04:08.837Z,11.20
2022-08-14T05:06:44.516Z,11.40
2022-08-14T05:09:14.310Z,11.20
2022-08-14T05:11:44.319Z,11.70
2022-08-14T05:14:16.930Z,11.10
2022-08-14T05:17:01.655Z,12.00
2022-08-14T05:19:32.641Z,12.00
2022-08-14T05:22:17.396Z,11.30
2022-08-14T05:24:52.049Z,10.60
2022-08-14T05:27:22.982Z,10.20
2022-08-14T05:29:55.574Z,10.50
2022-08-14T05:32:26.963Z,9.80
2022-08-14T05:34:58.731Z,9.70
2022-08-14T05:37:30.323Z,9.50
2022-08-14T05:40:00.422Z,9.40
2022-08-14T05:42:38.428Z,9.40
2022-08-14T05:45:10.969Z,9.60
2022-08-14T05:47:42.911Z,9.60
2022-08-14T05:50:18.478Z,9.10
2022-08-14T05:52:51.166Z,9.00
2022-08-14T05:55:22.610Z,9.30
2022-08-14T05:58:01.258Z,8.90
2022-08-14T06:00:38.602Z,9.30
2022-08-14T06:03:11.737Z,9.30
2022-08-14T06:05:39.913Z,9.20
2022-08-14T06:08:31.359Z,9.50
2022-08-14T06:11:08.258Z,9.10
2022-08-14T06:13:44.915Z,9.30
2022-08-14T06:16:18.878Z,9.60
2022-08-14T06:18:52.332Z,9.70
2022-08-14T06:21:23.120Z,9.10
2022-08-14T06:23:52.321Z,9.40
2022-08-14T06:26:22.211Z,9.70
2022-08-14T06:29:11.741Z,8.90
2022-08-14T06:31:40.905Z,9.20
2022-08-14T06:35:09.882Z,9.10
2022-08-14T06:36:59.821Z,8.80
2022-08-14T06:39:36.926Z,9.00
2022-08-14T06:42:06.931Z,8.80
2022-08-14T06:44:35.649Z,8.60
2022-08-14T06:47:05.453Z,8.80
2022-08-14T06:49:34.308Z,9.00
2022-08-14T06:52:16.390Z,8.80
2022-08-14T06:57:13.820Z,8.20
2022-08-14T07:00:02.573Z,8.40
2022-08-14T07:02:49.103Z,8.50
2022-08-14T07:05:36.178Z,8.00
2022-08-14T07:08:06.774Z,7.70
2022-08-14T07:10:35.555Z,8.20
2022-08-14T07:13:07.553Z,7.00
2022-08-14T07:15:42.085Z,7.80
2022-08-14T07:18:12.466Z,7.20
2022-08-14T07:20:42.226Z,7.20
2022-08-14T07:23:19.854Z,7.10
2022-08-14T07:25:51.948Z,7.60
2022-08-14T07:28:23.949Z,6.80
2022-08-14T07:31:05.098Z,7.40
2022-08-14T07:33:41.660Z,7.20
2022-08-14T07:36:27.435Z,7.50
2022-08-14T07:39:00.293Z,7.30
2022-08-14T07:41:31.368Z,7.50
2022-08-14T07:44:29.095Z,7.70
2022-08-14T07:46:54.489Z,7.50
2022-08-14T07:49:24.772Z,8.00
2022-08-14T07:51:53.069Z,7.40
2022-08-14T07:54:23.338Z,7.40
2022-08-14T07:57:06.308Z,8.90
2022-08-14T07:59:44.724Z,8.40
2022-08-14T08:02:20.429Z,8.60
2022-08-14T08:04:59.176Z,7.30
2022-08-14T08:07:31.880Z,8.10
2022-08-14T08:10:46.923Z,8.00
2022-08-14T08:13:24.688Z,7.60
2022-08-14T08:15:58.175Z,7.80
2022-08-14T08:18:29.652Z,7.60
2022-08-14T08:21:00.194Z,7.70
2022-08-14T08:23:34.499Z,7.80
2022-08-14T08:26:11.793Z,7.70
2022-08-14T08:28:43.697Z,8.00
2022-08-14T08:31:12.973Z,7.80
2022-08-14T08:33:49.396Z,6.40
2022-08-14T08:36:19.072Z,7.20
2022-08-14T08:39:17.261Z,7.70
2022-08-14T08:41:45.375Z,7.40
2022-08-14T08:44:31.729Z,7.50
2022-08-14T08:47:08.371Z,7.60
2022-08-14T08:49:52.706Z,7.90
2022-08-14T08:52:31.281Z,7.90
2022-08-14T08:55:04.859Z,7.80
2022-08-14T08:57:39.043Z,7.90
2022-08-14T09:00:25.867Z,7.10
2022-08-14T09:02:59.782Z,8.00
2022-08-14T09:05:29.196Z,7.70
2022-08-14T09:08:30.134Z,7.20
2022-08-14T09:11:19.267Z,7.50
2022-08-14T09:13:51.750Z,8.10
2022-08-14T09:16:25.545Z,7.40
2022-08-14T09:18:56.246Z,7.40
2022-08-14T09:21:31.214Z,7.20
2022-08-14T09:24:29.353Z,7.30
2022-08-14T09:26:50.174Z,7.10
2022-08-14T09:29:22.887Z,7.30
2022-08-14T09:31:57.889Z,7.20
2022-08-14T09:34:58.545Z,7.10
2022-08-14T09:37:55.737Z,7.30
2022-08-14T09:40:50.247Z,8.00
2022-08-14T09:43:33.891Z,7.20
2022-08-14T09:46:07.835Z,7.20
2022-08-14T09:48:38.178Z,7.10
2022-08-14T09:54:12.634Z,7.00
2022-08-14T09:56:43.531Z,7.70
2022-08-14T09:59:15.034Z,7.10
2022-08-14T10:01:46.284Z,6.90
2022-08-14T10:04:34.437Z,6.60
2022-08-14T10:07:05.975Z,7.10
2022-08-14T10:09:59.659Z,6.90
2022-08-14T10:12:52.913Z,6.90
2022-08-14T10:15:30.099Z,6.70
2022-08-14T10:18:17.300Z,7.10
2022-08-14T10:20:53.952Z,6.60
2022-08-14T10:23:25.065Z,7.00
2022-08-14T10:26:05.469Z,6.50
2022-08-14T10:29:18.273Z,6.70
2022-08-14T10:31:44.947Z,6.10
2022-08-14T10:34:33.336Z,6.20
2022-08-14T10:37:17.023Z,6.60
2022-08-14T10:40:01.524Z,6.30
2022-08-14T10:42:39.695Z,6.20
2022-08-14T10:45:21.901Z,5.80
2022-08-14T10:48:07.636Z,5.60
2022-08-14T10:50:49.530Z,6.00
2022-08-14T10:53:35.507Z,6.10
2022-08-14T10:56:21.551Z,6.40
2022-08-14T10:59:08.637Z,6.40
2022-08-14T11:01:41.817Z,6.90
2022-08-14T11:04:31.235Z,6.40
2022-08-14T11:06:59.793Z,6.70
2022-08-14T11:09:31.636Z,7.60
2022-08-14T11:12:34.370Z,7.00
2022-08-14T11:15:02.303Z,6.70
2022-08-14T11:17:33.088Z,6.70
2022-08-14T11:20:03.616Z,11.40
2022-08-14T11:22:55.964Z,8.10
2022-08-14T11:25:24.483Z,5.80
2022-08-14T11:28:10.994Z,5.40
2022-08-14T11:30:49.868Z,5.70
2022-08-14T11:33:36.526Z,5.30
2022-08-14T11:36:17.752Z,6.00
2022-08-14T11:38:47.162Z,6.00
2022-08-14T11:41:17.270Z,5.20
2022-08-14T11:43:56.038Z,5.10
2022-08-14T11:46:30.547Z,4.90
2022-08-14T11:49:06.706Z,5.10
2022-08-14T11:51:53.786Z,5.00
2022-08-14T11:54:33.957Z,4.70
2022-08-14T11:57:05.546Z,5.10
2022-08-14T11:59:34.220Z,4.60
2022-08-14T12:03:01.760Z,4.90
2022-08-14T12:05:09.335Z,4.70
2022-08-14T12:07:49.108Z,4.40
2022-08-14T12:10:26.939Z,4.50
2022-08-14T12:13:14.364Z,4.20
2022-08-14T12:15:57.140Z,4.70
2022-08-14T12:18:37.283Z,5.10
2022-08-14T12:21:15.796Z,4.60
2022-08-14T12:24:06.157Z,4.50
2022-08-14T12:26:40.729Z,4.40
2022-08-14T12:29:13.020Z,4.60
2022-08-14T12:31:44.707Z,4.70
2022-08-14T12:34:20.151Z,5.00
2022-08-14T12:37:04.326Z,5.00
2022-08-14T12:42:11.870Z,4.40
2022-08-14T12:44:58.992Z,4.90
2022-08-14T12:47:32.519Z,5.20
2022-08-14T12:50:01.039Z,5.10
2022-08-14T12:52:43.022Z,5.30
2022-08-14T12:55:21.672Z,5.10
2022-08-14T12:57:53.131Z,5.40
2022-08-14T13:00:24.637Z,5.70
2022-08-14T13:02:55.824Z,5.60
2022-08-14T13:05:30.174Z,5.60
2022-08-14T13:08:03.758Z,5.50
2022-08-14T13:10:51.379Z,5.70
2022-08-14T13:13:21.238Z,5.70
2022-08-14T13:15:56.320Z,6.00
2022-08-14T13:18:28.212Z,5.30
2022-08-14T13:20:59.714Z,5.90
2022-08-14T13:23:36.450Z,5.50
2022-08-14T13:26:07.454Z,5.70
2022-08-14T13:29:01.498Z,5.20
2022-08-14T13:31:34.330Z,5.40
2022-08-14T13:34:04.378Z,5.10
2022-08-14T13:36:54.389Z,4.70
2022-08-14T13:39:23.460Z,4.60
2022-08-14T13:41:56.034Z,4.70
2022-08-14T13:44:27.942Z,4.70
2022-08-14T13:46:58.171Z,4.40
2022-08-14T13:49:29.231Z,4.60
2022-08-14T13:51:59.239Z,4.40
2022-08-14T13:54:32.973Z,4.40
2022-08-14T13:57:04.022Z,5.00
2022-08-14T13:59:38.085Z,4.20
2022-08-14T14:02:08.492Z,4.50
2022-08-14T14:04:42.869Z,4.40
2022-08-14T14:07:23.535Z,4.40
2022-08-14T14:09:58.257Z,4.20
2022-08-14T14:12:37.899Z,4.20
2022-08-14T14:15:13.986Z,4.70
2022-08-14T14:17:47.669Z,4.70
2022-08-14T14:20:35.388Z,5.00
2022-08-14T14:23:11.734Z,4.80
2022-08-14T14:25:48.722Z,4.90
2022-08-14T14:28:33.970Z,4.80
2022-08-14T14:31:06.094Z,5.00
2022-08-14T14:33:52.179Z,5.10
2022-08-14T14:36:28.669Z,4.90
2022-08-14T14:39:01.413Z,5.00
2022-08-14T14:41:38.299Z,5.20
2022-08-14T14:44:15.913Z,5.20
2022-08-14T14:46:50.965Z,5.20
2022-08-14T14:49:31.942Z,4.90
2022-08-14T14:52:17.197Z,5.00
2022-08-14T14:54:52.267Z,5.20
2022-08-14T14:57:21.432Z,5.40
2022-08-14T14:59:50.154Z,5.80
2022-08-14T15:02:40.952Z,6.10
2022-08-14T15:05:12.644Z,7.00
2022-08-14T15:07:42.987Z,7.10
2022-08-14T15:10:27.904Z,6.50
2022-08-14T15:13:04.332Z,6.60
2022-08-14T15:15:37.237Z,7.00
2022-08-14T15:18:14.886Z,5.90
2022-08-14T15:21:02.616Z,4.80
2022-08-14T15:23:43.872Z,6.80
2022-08-14T15:26:24.230Z,3.20
2022-08-14T15:29:05.818Z,4.40
2022-08-14T15:31:37.120Z,4.40
2022-08-14T15:34:44.257Z,3.90
2022-08-14T15:37:02.217Z,7.50
2022-08-14T15:39:33.687Z,7.80
2022-08-14T15:42:14.680Z,7.60
2022-08-14T15:44:58.414Z,8.70
2022-08-14T15:47:31.760Z,8.70
2022-08-14T15:50:03.966Z,9.40
2022-08-14T15:52:37.200Z,10.40
2022-08-14T15:55:09.700Z,9.50
2022-08-14T15:58:01.253Z,8.00
2022-08-14T16:00:53.941Z,9.00
2022-08-14T16:03:27.705Z,8.30
2022-08-14T16:06:17.787Z,10.40
2022-08-14T16:08:50.367Z,9.60
2022-08-14T16:11:26.867Z,7.60
2022-08-14T16:13:59.326Z,7.20
2022-08-14T16:16:49.223Z,7.50
2022-08-14T16:19:21.315Z,9.10
2022-08-14T16:22:02.164Z,10.30
2022-08-14T16:24:59.588Z,9.80
2022-08-14T16:27:39.115Z,7.20
2022-08-14T16:30:24.849Z,7.70
2022-08-14T16:32:59.204Z,7.10
2022-08-14T16:35:42.173Z,6.70
2022-08-14T16:40:25.543Z,7.90
2022-08-14T16:41:45.689Z,8.00
2022-08-14T16:44:33.613Z,8.00
2022-08-14T16:47:05.501Z,7.20
2022-08-14T16:50:03.283Z,7.00
2022-08-14T16:52:26.026Z,6.50
2022-08-14T16:55:14.250Z,6.80
2022-08-14T16:57:50.083Z,7.00
2022-08-14T17:00:32.836Z,6.30
2022-08-14T17:03:08.474Z,6.00
2022-08-14T17:05:43.889Z,6.40
2022-08-14T17:08:31.880Z,5.00
2022-08-14T17:11:10.318Z,5.30
2022-08-14T17:14:00.895Z,5.40
2022-08-14T17:16:39.197Z,5.70
2022-08-14T17:19:13.955Z,5.60
2022-08-14T17:21:46.781Z,5.60
2022-08-14T17:24:57.802Z,5.40
2022-08-14T17:27:10.559Z,5.10
2022-08-14T17:29:54.370Z,5.50
2022-08-14T17:32:55.713Z,5.00
2022-08-14T17:35:57.324Z,4.70
2022-08-14T17:38:38.559Z,4.90
2022-08-14T17:41:27.165Z,4.50
2022-08-14T17:44:45.491Z,5.00
2022-08-14T17:47:18.295Z,5.00
2022-08-14T17:49:51.781Z,4.80
2022-08-14T17:52:34.713Z,6.00
2022-08-14T17:56:01.302Z,4.90
2022-08-14T17:58:20.330Z,5.60
2022-08-14T18:00:57.570Z,5.90
2022-08-14T18:03:50.919Z,6.20
2022-08-14T18:06:40.081Z,6.20
2022-08-14T18:09:25.835Z,6.60
2022-08-14T18:11:58.630Z,32.00
2022-08-14T18:14:33.035Z,6.90
2022-08-14T18:17:18.185Z,7.70
2022-08-14T18:19:50.483Z,7.90
2022-08-14T18:22:32.866Z,7.30
2022-08-14T18:25:18.065Z,7.80
2022-08-14T18:27:51.585Z,7.30
2022-08-14T18:33:17.925Z,6.30
2022-08-14T18:35:58.577Z,7.00
2022-08-14T18:38:45.455Z,7.40
2022-08-14T18:41:36.618Z,7.00
2022-08-14T18:44:10.302Z,7.30
2022-08-14T18:47:15.091Z,7.40
2022-08-14T18:50:00.795Z,7.50
2022-08-14T18:52:38.866Z,7.60
2022-08-14T18:55:19.012Z,7.40
2022-08-14T19:00:32.152Z,9.30
2022-08-14T19:03:10.150Z,9.00
2022-08-14T19:05:41.196Z,9.70
2022-08-14T19:08:22.192Z,10.70
2022-08-14T19:11:04.193Z,10.20
2022-08-14T19:13:48.570Z,10.00
2022-08-14T19:16:26.318Z,9.10
2022-08-14T19:19:00.542Z,9.10
2022-08-14T19:21:31.837Z,8.60
2022-08-14T19:24:27.462Z,10.30
2022-08-14T19:27:23.006Z,11.20
2022-08-14T19:30:19.648Z,10.80
2022-08-14T19:32:56.122Z,10.70
2022-08-14T19:35:55.124Z,9.90
2022-08-14T19:38:48.510Z,10.20
2022-08-14T19:41:33.895Z,10.20
2022-08-14T19:44:10.546Z,9.20
2022-08-14T19:47:10.898Z,9.70
2022-08-14T19:50:08.984Z,9.10
2022-08-14T19:52:38.779Z,7.40
2022-08-14T19:55:20.313Z,7.40
2022-08-14T19:57:58.542Z,6.60
2022-08-14T20:00:30.177Z,6.80
2022-08-14T20:03:11.771Z,7.40
2022-08-14T20:05:42.578Z,6.40
2022-08-14T20:11:01.152Z,7.30
2022-08-14T20:12:00.141Z,6.70
2022-08-14T20:14:20.804Z,7.10
2022-08-14T20:17:01.656Z,6.80
2022-08-14T20:19:37.434Z,7.00
2022-08-14T20:22:36.444Z,7.60
2022-08-14T20:24:56.514Z,7.10
2022-08-14T20:27:33.919Z,6.60
2022-08-14T20:33:07.747Z,6.90
2022-08-14T20:35:39.347Z,6.90
2022-08-14T20:38:28.758Z,7.30
2022-08-14T20:41:05.862Z,7.50
2022-08-14T20:43:57.317Z,7.60
2022-08-14T20:46:29.602Z,7.00
2022-08-14T20:49:00.773Z,7.40
2022-08-14T20:51:43.621Z,7.10
2022-08-14T20:54:33.589Z,7.00
2022-08-14T20:57:17.661Z,7.50
2022-08-14T20:59:52.941Z,6.80
2022-08-14T21:02:50.294Z,7.20
2022-08-14T21:05:33.809Z,7.40
2022-08-14T21:08:09.697Z,7.70
2022-08-14T21:10:54.936Z,8.00
2022-08-14T21:14:08.694Z,7.10
2022-08-14T21:16:33.375Z,7.20
2022-08-14T21:19:04.143Z,6.80
2022-08-14T21:21:41.232Z,7.70
2022-08-14T21:24:38.953Z,7.40
2022-08-14T21:27:19.821Z,6.80
2022-08-14T21:29:55.939Z,7.30
2022-08-14T21:32:47.248Z,6.90
2022-08-14T21:35:22.852Z,7.50
2022-08-14T21:37:52.756Z,6.90
2022-08-14T21:40:41.997Z,6.30
2022-08-14T21:43:18.830Z,7.10
2022-08-14T21:45:53.635Z,6.50
2022-08-14T21:48:29.931Z,7.00
2022-08-14T21:51:56.025Z,7.80
2022-08-14T21:53:59.232Z,7.10
2022-08-14T21:56:38.382Z,6.80
2022-08-14T21:59:18.007Z,7.20
2022-08-14T22:02:01.133Z,6.90
2022-08-14T22:04:41.403Z,6.70
2022-08-14T22:07:17.176Z,7.00
2022-08-14T22:09:55.335Z,7.60
2022-08-14T22:12:57.803Z,7.80
2022-08-14T22:15:18.131Z,7.30
2022-08-14T22:17:52.253Z,7.30
2022-08-14T22:20:28.778Z,7.30
2022-08-14T22:23:03.002Z,7.90
2022-08-14T22:25:34.657Z,8.30
2022-08-14T22:28:18.099Z,7.40
2022-08-14T22:30:47.923Z,7.50
2022-08-14T22:33:30.900Z,7.50
2022-08-14T22:36:25.330Z,7.70
2022-08-14T22:38:56.038Z,8.10
2022-08-14T22:41:29.625Z,8.10
2022-08-14T22:44:21.352Z,8.00
2022-08-14T22:46:50.547Z,7.50
2022-08-14T22:50:29.030Z,7.40
2022-08-14T22:52:31.729Z,7.20
2022-08-14T22:55:00.084Z,7.40
2022-08-14T22:57:37.283Z,7.30
2022-08-14T23:00:12.168Z,7.50
2022-08-14T23:02:42.576Z,7.50
2022-08-14T23:05:15.041Z,7.20
2022-08-14T23:08:59.843Z,7.30
2022-08-14T23:10:34.878Z,7.50
2022-08-14T23:13:06.760Z,7.30
2022-08-14T23:15:37.684Z,7.80
2022-08-14T23:18:06.223Z,8.00
2022-08-14T23:20:36.316Z,8.00
2022-08-14T23:23:22.599Z,8.10
2022-08-14T23:26:00.575Z,8.60
2022-08-14T23:28:58.198Z,7.90
2022-08-14T23:31:35.580Z,8.00
2022-08-14T23:34:07.369Z,8.70
2022-08-14T23:36:54.527Z,8.50
2022-08-14T23:39:29.514Z,8.40
2022-08-14T23:42:11.667Z,8.80
2022-08-14T23:44:39.824Z,7.90
2022-08-14T23:47:27.604Z,8.40
2022-08-14T23:50:03.476Z,8.70
2022-08-14T23:53:06.714Z,8.00
2022-08-14T23:55:30.729Z,8.60
2022-08-14T23:58:00.953Z,8.20
